sensor_id;sensor_type;location;lat;lon;timestamp;temperature;humidity
1383;DHT22;685;47.196;11.880;2023-02-13T00:01:12;0.50;99.90
1383;DHT22;685;47.196;11.880;2023-02-13T00:03:39;0.70;99.90
1383;DHT22;685;47.196;11.880;2023-02-13T00:06:06;0.70;99.90
1383;DHT22;685;47.196;11.880;2023-02-13T00:08:34;0.60;99.90
1383;DHT22;685;47.196;11.880;2023-02-13T00:11:01;0.70;99.90
1383;DHT22;685;47.196;11.880;2023-02-13T00:13:28;0.70;99.90
1383;DHT22;685;47.196;11.880;2023-02-13T00:15:57;0.80;99.90
1383;DHT22;685;47.196;11.880;2023-02-13T00:18:24;0.80;99.90
1383;DHT22;685;47.196;11.880;2023-02-13T00:20:59;0.80;99.90
1383;DHT22;685;47.196;11.880;2023-02-13T00:23:26;0.70;99.90
1383;DHT22;685;47.196;11.880;2023-02-13T00:25:52;0.70;99.90
1383;DHT22;685;47.196;11.880;2023-02-13T00:28:19;0.80;99.90
1383;DHT22;685;47.196;11.880;2023-02-13T00:30:46;0.90;99.90
1383;DHT22;685;47.196;11.880;2023-02-13T00:33:14;0.90;99.90
1383;DHT22;685;47.196;11.880;2023-02-13T00:35:41;0.80;99.90
1383;DHT22;685;47.196;11.880;2023-02-13T00:38:08;0.90;99.90
1383;DHT22;685;47.196;11.880;2023-02-13T00:40:35;0.90;99.90
1383;DHT22;685;47.196;11.880;2023-02-13T00:43:02;0.60;99.90
1383;DHT22;685;47.196;11.880;2023-02-13T00:45:29;0.70;99.90
1383;DHT22;685;47.196;11.880;2023-02-13T00:47:56;0.60;99.90
1383;DHT22;685;47.196;11.880;2023-02-13T00:50:24;0.50;99.90
1383;DHT22;685;47.196;11.880;2023-02-13T00:52:51;0.60;99.90
1383;DHT22;685;47.196;11.880;2023-02-13T00:55:18;0.50;99.90
1383;DHT22;685;47.196;11.880;2023-02-13T00:57:45;0.60;99.90
1383;DHT22;685;47.196;11.880;2023-02-13T01:00:13;0.40;99.90
1383;DHT22;685;47.196;11.880;2023-02-13T01:02:40;0.50;99.90
1383;DHT22;685;47.196;11.880;2023-02-13T01:05:07;0.60;99.90
1383;DHT22;685;47.196;11.880;2023-02-13T01:07:35;0.70;99.90
1383;DHT22;685;47.196;11.880;2023-02-13T01:10:02;0.60;99.90
1383;DHT22;685;47.196;11.880;2023-02-13T01:12:29;0.50;99.90
1383;DHT22;685;47.196;11.880;2023-02-13T01:14:56;0.50;99.90
1383;DHT22;685;47.196;11.880;2023-02-13T01:17:23;0.40;99.90
1383;DHT22;685;47.196;11.880;2023-02-13T01:19:50;0.50;99.90
1383;DHT22;685;47.196;11.880;2023-02-13T01:22:17;0.50;99.90
1383;DHT22;685;47.196;11.880;2023-02-13T01:24:45;0.60;99.90
1383;DHT22;685;47.196;11.880;2023-02-13T01:27:12;0.80;99.90
1383;DHT22;685;47.196;11.880;2023-02-13T01:29:39;0.80;99.90
1383;DHT22;685;47.196;11.880;2023-02-13T01:32:06;0.80;99.90
1383;DHT22;685;47.196;11.880;2023-02-13T01:34:33;0.80;99.90
1383;DHT22;685;47.196;11.880;2023-02-13T01:37:00;0.70;99.90
1383;DHT22;685;47.196;11.880;2023-02-13T01:39:26;0.80;99.90
1383;DHT22;685;47.196;11.880;2023-02-13T01:41:55;0.70;99.90
1383;DHT22;685;47.196;11.880;2023-02-13T01:44:47;0.70;99.90
1383;DHT22;685;47.196;11.880;2023-02-13T01:47:21;0.80;99.90
1383;DHT22;685;47.196;11.880;2023-02-13T01:50:03;0.70;99.90
1383;DHT22;685;47.196;11.880;2023-02-13T01:52:32;0.50;99.90
1383;DHT22;685;47.196;11.880;2023-02-13T01:54:59;0.70;99.90
1383;DHT22;685;47.196;11.880;2023-02-13T01:57:30;0.70;99.90
1383;DHT22;685;47.196;11.880;2023-02-13T02:00:02;0.50;99.90
1383;DHT22;685;47.196;11.880;2023-02-13T02:02:33;0.50;99.90
1383;DHT22;685;47.196;11.880;2023-02-13T02:05:02;0.20;99.90
1383;DHT22;685;47.196;11.880;2023-02-13T02:07:30;0.20;99.90
1383;DHT22;685;47.196;11.880;2023-02-13T02:10:00;0.10;99.90
1383;DHT22;685;47.196;11.880;2023-02-13T02:12:33;0.00;99.90
1383;DHT22;685;47.196;11.880;2023-02-13T02:15:03;-0.20;99.90
1383;DHT22;685;47.196;11.880;2023-02-13T02:17:30;-0.50;99.90
1383;DHT22;685;47.196;11.880;2023-02-13T02:20:07;-0.30;99.90
1383;DHT22;685;47.196;11.880;2023-02-13T02:23:12;-0.10;99.90
1383;DHT22;685;47.196;11.880;2023-02-13T02:26:15;0.10;99.90
1383;DHT22;685;47.196;11.880;2023-02-13T02:29:19;0.10;99.90
1383;DHT22;685;47.196;11.880;2023-02-13T02:32:19;0.20;99.90
1383;DHT22;685;47.196;11.880;2023-02-13T02:34:55;0.30;99.90
1383;DHT22;685;47.196;11.880;2023-02-13T02:37:39;0.40;99.90
1383;DHT22;685;47.196;11.880;2023-02-13T02:40:18;0.30;99.90
1383;DHT22;685;47.196;11.880;2023-02-13T02:42:57;0.40;99.90
1383;DHT22;685;47.196;11.880;2023-02-13T02:45:37;0.20;99.90
1383;DHT22;685;47.196;11.880;2023-02-13T02:48:11;-0.20;99.90
1383;DHT22;685;47.196;11.880;2023-02-13T02:51:04;-0.30;99.90
1383;DHT22;685;47.196;11.880;2023-02-13T02:53:38;-0.20;99.90
1383;DHT22;685;47.196;11.880;2023-02-13T02:56:12;-0.20;99.90
1383;DHT22;685;47.196;11.880;2023-02-13T02:58:43;-0.10;99.90
1383;DHT22;685;47.196;11.880;2023-02-13T03:01:31;0.10;99.90
1383;DHT22;685;47.196;11.880;2023-02-13T03:04:23;-0.10;99.90
1383;DHT22;685;47.196;11.880;2023-02-13T03:07:11;-0.10;99.90
1383;DHT22;685;47.196;11.880;2023-02-13T03:09:42;-0.40;99.90
1383;DHT22;685;47.196;11.880;2023-02-13T03:12:35;-0.60;99.90
1383;DHT22;685;47.196;11.880;2023-02-13T03:15:23;-0.40;99.90
1383;DHT22;685;47.196;11.880;2023-02-13T03:17:51;-0.50;99.90
1383;DHT22;685;47.196;11.880;2023-02-13T03:20:44;-0.40;99.90
1383;DHT22;685;47.196;11.880;2023-02-13T03:23:36;-0.30;99.90
1383;DHT22;685;47.196;11.880;2023-02-13T03:26:36;-0.30;99.90
1383;DHT22;685;47.196;11.880;2023-02-13T03:29:21;-0.10;99.90
1383;DHT22;685;47.196;11.880;2023-02-13T03:32:12;0.00;99.90
1383;DHT22;685;47.196;11.880;2023-02-13T03:34:50;0.00;99.90
1383;DHT22;685;47.196;11.880;2023-02-13T03:37:39;0.00;99.90
1383;DHT22;685;47.196;11.880;2023-02-13T03:40:25;0.10;99.90
1383;DHT22;685;47.196;11.880;2023-02-13T03:42:57;0.10;99.90
1383;DHT22;685;47.196;11.880;2023-02-13T03:45:28;0.00;99.90
1383;DHT22;685;47.196;11.880;2023-02-13T03:48:15;-0.10;99.90
1383;DHT22;685;47.196;11.880;2023-02-13T03:50:57;-0.10;99.90
1383;DHT22;685;47.196;11.880;2023-02-13T03:53:28;-0.30;99.90
1383;DHT22;685;47.196;11.880;2023-02-13T03:55:56;-0.20;99.90
1383;DHT22;685;47.196;11.880;2023-02-13T03:58:45;-0.10;99.90
1383;DHT22;685;47.196;11.880;2023-02-13T04:01:32;0.00;99.90
1383;DHT22;685;47.196;11.880;2023-02-13T04:04:06;0.00;99.90
1383;DHT22;685;47.196;11.880;2023-02-13T04:06:38;0.10;99.90
1383;DHT22;685;47.196;11.880;2023-02-13T04:09:07;0.10;99.90
1383;DHT22;685;47.196;11.880;2023-02-13T04:11:36;0.00;99.90
1383;DHT22;685;47.196;11.880;2023-02-13T04:14:07;0.10;99.90
1383;DHT22;685;47.196;11.880;2023-02-13T04:16:37;0.10;99.90
1383;DHT22;685;47.196;11.880;2023-02-13T04:19:05;0.20;99.90
1383;DHT22;685;47.196;11.880;2023-02-13T04:21:34;0.20;99.90
1383;DHT22;685;47.196;11.880;2023-02-13T04:24:01;0.20;99.90
1383;DHT22;685;47.196;11.880;2023-02-13T04:26:34;0.20;99.90
1383;DHT22;685;47.196;11.880;2023-02-13T04:29:02;0.00;99.90
1383;DHT22;685;47.196;11.880;2023-02-13T04:31:29;-0.30;99.90
1383;DHT22;685;47.196;11.880;2023-02-13T04:33:56;-0.50;99.90
1383;DHT22;685;47.196;11.880;2023-02-13T04:36:22;-0.30;99.90
1383;DHT22;685;47.196;11.880;2023-02-13T04:38:49;-0.20;99.90
1383;DHT22;685;47.196;11.880;2023-02-13T04:41:16;-0.30;99.90
1383;DHT22;685;47.196;11.880;2023-02-13T04:43:45;-0.40;99.90
1383;DHT22;685;47.196;11.880;2023-02-13T04:46:12;-0.90;99.90
1383;DHT22;685;47.196;11.880;2023-02-13T04:48:40;-1.00;99.90
1383;DHT22;685;47.196;11.880;2023-02-13T04:51:06;-0.90;99.90
1383;DHT22;685;47.196;11.880;2023-02-13T04:53:33;-0.90;99.90
1383;DHT22;685;47.196;11.880;2023-02-13T04:56:00;-0.80;99.90
1383;DHT22;685;47.196;11.880;2023-02-13T04:58:27;-0.80;99.90
1383;DHT22;685;47.196;11.880;2023-02-13T05:00:55;-0.70;99.90
1383;DHT22;685;47.196;11.880;2023-02-13T05:03:22;-0.60;99.90
1383;DHT22;685;47.196;11.880;2023-02-13T05:05:49;-0.70;99.90
1383;DHT22;685;47.196;11.880;2023-02-13T05:08:16;-0.70;99.90
1383;DHT22;685;47.196;11.880;2023-02-13T05:10:43;-0.40;99.90
1383;DHT22;685;47.196;11.880;2023-02-13T05:13:10;-0.50;99.90
1383;DHT22;685;47.196;11.880;2023-02-13T05:15:37;-0.40;99.90
1383;DHT22;685;47.196;11.880;2023-02-13T05:18:05;-0.30;99.90
1383;DHT22;685;47.196;11.880;2023-02-13T05:20:32;-0.40;99.90
1383;DHT22;685;47.196;11.880;2023-02-13T05:22:59;-0.40;99.90
1383;DHT22;685;47.196;11.880;2023-02-13T05:25:43;-0.30;99.90
1383;DHT22;685;47.196;11.880;2023-02-13T05:28:10;-0.30;99.90
1383;DHT22;685;47.196;11.880;2023-02-13T05:30:51;-0.60;99.90
1383;DHT22;685;47.196;11.880;2023-02-13T05:33:19;-0.60;99.90
1383;DHT22;685;47.196;11.880;2023-02-13T05:35:46;-0.80;99.90
1383;DHT22;685;47.196;11.880;2023-02-13T05:38:13;-0.60;99.90
1383;DHT22;685;47.196;11.880;2023-02-13T05:40:39;-0.60;99.90
1383;DHT22;685;47.196;11.880;2023-02-13T05:43:06;-0.50;99.90
1383;DHT22;685;47.196;11.880;2023-02-13T05:45:33;-0.70;99.90
1383;DHT22;685;47.196;11.880;2023-02-13T05:48:00;-0.60;99.90
1383;DHT22;685;47.196;11.880;2023-02-13T05:50:28;-0.50;99.90
1383;DHT22;685;47.196;11.880;2023-02-13T05:52:55;-0.70;99.90
1383;DHT22;685;47.196;11.880;2023-02-13T05:55:22;-1.00;99.90
1383;DHT22;685;47.196;11.880;2023-02-13T05:57:49;-0.90;99.90
1383;DHT22;685;47.196;11.880;2023-02-13T06:00:17;-0.80;99.90
1383;DHT22;685;47.196;11.880;2023-02-13T06:02:44;-0.80;99.90
1383;DHT22;685;47.196;11.880;2023-02-13T06:05:10;-0.70;99.90
1383;DHT22;685;47.196;11.880;2023-02-13T06:07:39;-0.60;99.90
1383;DHT22;685;47.196;11.880;2023-02-13T06:10:06;-0.70;99.90
1383;DHT22;685;47.196;11.880;2023-02-13T06:12:33;-0.50;99.90
1383;DHT22;685;47.196;11.880;2023-02-13T06:15:00;-0.50;99.90
1383;DHT22;685;47.196;11.880;2023-02-13T06:17:27;-0.70;99.90
1383;DHT22;685;47.196;11.880;2023-02-13T06:19:54;-0.60;99.90
1383;DHT22;685;47.196;11.880;2023-02-13T06:22:21;-0.50;99.90
1383;DHT22;685;47.196;11.880;2023-02-13T06:24:49;-0.50;99.90
1383;DHT22;685;47.196;11.880;2023-02-13T06:27:16;-0.50;99.90
1383;DHT22;685;47.196;11.880;2023-02-13T06:29:42;-0.60;99.90
1383;DHT22;685;47.196;11.880;2023-02-13T06:32:09;-0.60;99.90
1383;DHT22;685;47.196;11.880;2023-02-13T06:34:36;-0.50;99.90
1383;DHT22;685;47.196;11.880;2023-02-13T06:37:03;-0.40;99.90
1383;DHT22;685;47.196;11.880;2023-02-13T06:39:30;-0.40;99.90
1383;DHT22;685;47.196;11.880;2023-02-13T06:41:58;-0.40;99.90
1383;DHT22;685;47.196;11.880;2023-02-13T06:44:25;-0.40;99.90
1383;DHT22;685;47.196;11.880;2023-02-13T06:46:52;-0.30;99.90
1383;DHT22;685;47.196;11.880;2023-02-13T06:49:19;-0.50;99.90
1383;DHT22;685;47.196;11.880;2023-02-13T06:51:45;-0.60;99.90
1383;DHT22;685;47.196;11.880;2023-02-13T06:54:12;-0.70;99.90
1383;DHT22;685;47.196;11.880;2023-02-13T06:56:39;-0.60;99.90
1383;DHT22;685;47.196;11.880;2023-02-13T06:59:08;-0.40;99.90
1383;DHT22;685;47.196;11.880;2023-02-13T07:01:35;-0.40;99.90
1383;DHT22;685;47.196;11.880;2023-02-13T07:04:02;-0.40;99.90
1383;DHT22;685;47.196;11.880;2023-02-13T07:06:28;-0.40;99.90
1383;DHT22;685;47.196;11.880;2023-02-13T07:08:55;-0.60;99.90
1383;DHT22;685;47.196;11.880;2023-02-13T07:11:23;-0.80;99.90
1383;DHT22;685;47.196;11.880;2023-02-13T07:13:50;-0.70;99.90
1383;DHT22;685;47.196;11.880;2023-02-13T07:16:19;-0.70;99.90
1383;DHT22;685;47.196;11.880;2023-02-13T07:18:46;-0.50;99.90
1383;DHT22;685;47.196;11.880;2023-02-13T07:21:13;-0.40;99.90
1383;DHT22;685;47.196;11.880;2023-02-13T07:23:39;-0.50;99.90
1383;DHT22;685;47.196;11.880;2023-02-13T07:26:06;-0.40;99.90
1383;DHT22;685;47.196;11.880;2023-02-13T07:28:35;-0.80;99.90
1383;DHT22;685;47.196;11.880;2023-02-13T07:31:03;-0.80;99.90
1383;DHT22;685;47.196;11.880;2023-02-13T07:33:32;-0.70;99.90
1383;DHT22;685;47.196;11.880;2023-02-13T07:35:59;-0.60;99.90
1383;DHT22;685;47.196;11.880;2023-02-13T07:38:28;-0.60;99.90
1383;DHT22;685;47.196;11.880;2023-02-13T07:40:57;-0.60;99.90
1383;DHT22;685;47.196;11.880;2023-02-13T07:43:24;-0.50;99.90
1383;DHT22;685;47.196;11.880;2023-02-13T07:45:51;-0.50;99.90
1383;DHT22;685;47.196;11.880;2023-02-13T07:48:20;-0.40;99.90
1383;DHT22;685;47.196;11.880;2023-02-13T07:50:48;-0.50;99.90
1383;DHT22;685;47.196;11.880;2023-02-13T07:53:15;-0.40;99.90
1383;DHT22;685;47.196;11.880;2023-02-13T07:55:42;-0.40;99.90
1383;DHT22;685;47.196;11.880;2023-02-13T07:58:09;-0.40;99.90
1383;DHT22;685;47.196;11.880;2023-02-13T08:00:36;-0.60;99.90
1383;DHT22;685;47.196;11.880;2023-02-13T08:03:03;-0.50;99.90
1383;DHT22;685;47.196;11.880;2023-02-13T08:05:31;-0.50;99.90
1383;DHT22;685;47.196;11.880;2023-02-13T08:08:00;-0.50;99.90
1383;DHT22;685;47.196;11.880;2023-02-13T08:10:27;-0.30;99.90
1383;DHT22;685;47.196;11.880;2023-02-13T08:13:12;-0.20;99.90
1383;DHT22;685;47.196;11.880;2023-02-13T08:15:40;-0.40;99.90
1383;DHT22;685;47.196;11.880;2023-02-13T08:18:09;-0.30;99.90
1383;DHT22;685;47.196;11.880;2023-02-13T08:20:36;-0.50;99.90
1383;DHT22;685;47.196;11.880;2023-02-13T08:23:05;-0.30;99.90
1383;DHT22;685;47.196;11.880;2023-02-13T08:25:32;-0.50;99.90
1383;DHT22;685;47.196;11.880;2023-02-13T08:28:00;-0.30;99.90
1383;DHT22;685;47.196;11.880;2023-02-13T08:30:27;-0.40;99.90
1383;DHT22;685;47.196;11.880;2023-02-13T08:32:54;-0.40;99.90
1383;DHT22;685;47.196;11.880;2023-02-13T08:35:21;-0.30;99.90
1383;DHT22;685;47.196;11.880;2023-02-13T08:37:51;-0.40;99.90
1383;DHT22;685;47.196;11.880;2023-02-13T08:40:19;-0.30;99.90
1383;DHT22;685;47.196;11.880;2023-02-13T08:42:46;-0.30;99.90
1383;DHT22;685;47.196;11.880;2023-02-13T08:45:13;-0.40;99.90
1383;DHT22;685;47.196;11.880;2023-02-13T08:47:40;-0.30;99.90
1383;DHT22;685;47.196;11.880;2023-02-13T08:50:07;-0.30;99.90
1383;DHT22;685;47.196;11.880;2023-02-13T08:52:34;-0.40;99.90
1383;DHT22;685;47.196;11.880;2023-02-13T08:55:01;-0.40;99.90
1383;DHT22;685;47.196;11.880;2023-02-13T08:57:30;-0.50;99.90
1383;DHT22;685;47.196;11.880;2023-02-13T08:59:57;-0.40;99.90
1383;DHT22;685;47.196;11.880;2023-02-13T09:02:24;-0.40;99.90
1383;DHT22;685;47.196;11.880;2023-02-13T09:04:51;-0.50;99.90
1383;DHT22;685;47.196;11.880;2023-02-13T09:07:18;-0.50;99.90
1383;DHT22;685;47.196;11.880;2023-02-13T09:09:44;-0.40;99.90
1383;DHT22;685;47.196;11.880;2023-02-13T09:12:11;-0.40;99.90
1383;DHT22;685;47.196;11.880;2023-02-13T09:14:40;-0.50;99.90
1383;DHT22;685;47.196;11.880;2023-02-13T09:17:06;-0.40;99.90
1383;DHT22;685;47.196;11.880;2023-02-13T09:19:33;-0.30;99.90
1383;DHT22;685;47.196;11.880;2023-02-13T09:22:00;-0.20;99.90
1383;DHT22;685;47.196;11.880;2023-02-13T09:24:27;-0.10;99.90
1383;DHT22;685;47.196;11.880;2023-02-13T09:26:54;0.00;99.90
1383;DHT22;685;47.196;11.880;2023-02-13T09:29:21;0.00;99.90
1383;DHT22;685;47.196;11.880;2023-02-13T09:31:50;0.10;99.90
1383;DHT22;685;47.196;11.880;2023-02-13T09:34:17;0.10;99.90
1383;DHT22;685;47.196;11.880;2023-02-13T09:36:44;0.10;99.90
1383;DHT22;685;47.196;11.880;2023-02-13T09:39:10;0.30;99.90
1383;DHT22;685;47.196;11.880;2023-02-13T09:41:39;0.40;99.90
1383;DHT22;685;47.196;11.880;2023-02-13T09:44:13;0.60;99.90
1383;DHT22;685;47.196;11.880;2023-02-13T09:46:58;0.70;99.90
1383;DHT22;685;47.196;11.880;2023-02-13T09:49:29;0.70;99.90
1383;DHT22;685;47.196;11.880;2023-02-13T09:51:57;0.80;99.90
1383;DHT22;685;47.196;11.880;2023-02-13T09:54:25;0.70;99.90
1383;DHT22;685;47.196;11.880;2023-02-13T09:56:58;1.00;99.90
1383;DHT22;685;47.196;11.880;2023-02-13T09:59:48;1.40;99.90
1383;DHT22;685;47.196;11.880;2023-02-13T10:02:35;1.50;99.90
1383;DHT22;685;47.196;11.880;2023-02-13T10:05:09;1.80;99.90
1383;DHT22;685;47.196;11.880;2023-02-13T10:07:47;2.00;99.90
1383;DHT22;685;47.196;11.880;2023-02-13T10:10:22;2.10;99.90
1383;DHT22;685;47.196;11.880;2023-02-13T10:12:58;2.10;99.90
1383;DHT22;685;47.196;11.880;2023-02-13T10:15:34;2.00;99.90
1383;DHT22;685;47.196;11.880;2023-02-13T10:18:07;2.00;99.90
1383;DHT22;685;47.196;11.880;2023-02-13T10:20:41;2.10;99.90
1383;DHT22;685;47.196;11.880;2023-02-13T10:23:17;2.30;99.90
1383;DHT22;685;47.196;11.880;2023-02-13T10:25:49;2.40;99.90
1383;DHT22;685;47.196;11.880;2023-02-13T10:28:27;2.40;99.90
1383;DHT22;685;47.196;11.880;2023-02-13T10:30:57;2.30;99.90
1383;DHT22;685;47.196;11.880;2023-02-13T10:33:29;2.20;99.90
1383;DHT22;685;47.196;11.880;2023-02-13T10:36:00;2.40;99.90
1383;DHT22;685;47.196;11.880;2023-02-13T10:38:30;2.50;99.90
1383;DHT22;685;47.196;11.880;2023-02-13T10:41:22;2.70;99.90
1383;DHT22;685;47.196;11.880;2023-02-13T10:43:58;2.60;99.90
1383;DHT22;685;47.196;11.880;2023-02-13T10:46:34;2.60;99.90
1383;DHT22;685;47.196;11.880;2023-02-13T10:49:21;2.70;99.90
1383;DHT22;685;47.196;11.880;2023-02-13T10:51:56;2.70;99.90
1383;DHT22;685;47.196;11.880;2023-02-13T10:54:33;2.90;99.90
1383;DHT22;685;47.196;11.880;2023-02-13T10:57:09;2.90;99.90
1383;DHT22;685;47.196;11.880;2023-02-13T10:59:49;3.00;99.90
1383;DHT22;685;47.196;11.880;2023-02-13T11:02:23;3.00;99.90
1383;DHT22;685;47.196;11.880;2023-02-13T11:04:57;3.10;99.90
1383;DHT22;685;47.196;11.880;2023-02-13T11:07:25;3.30;99.90
1383;DHT22;685;47.196;11.880;2023-02-13T11:09:56;3.60;99.90
1383;DHT22;685;47.196;11.880;2023-02-13T11:12:26;3.70;99.90
1383;DHT22;685;47.196;11.880;2023-02-13T11:14:55;3.60;99.90
1383;DHT22;685;47.196;11.880;2023-02-13T11:17:23;3.50;99.90
1383;DHT22;685;47.196;11.880;2023-02-13T11:19:54;3.50;99.90
1383;DHT22;685;47.196;11.880;2023-02-13T11:22:29;3.60;99.90
1383;DHT22;685;47.196;11.880;2023-02-13T11:24:58;3.60;99.90
1383;DHT22;685;47.196;11.880;2023-02-13T11:27:30;3.80;99.90
1383;DHT22;685;47.196;11.880;2023-02-13T11:29:59;4.00;99.90
1383;DHT22;685;47.196;11.880;2023-02-13T11:32:28;4.20;99.90
1383;DHT22;685;47.196;11.880;2023-02-13T11:34:56;4.40;99.90
1383;DHT22;685;47.196;11.880;2023-02-13T11:37:28;4.50;99.90
1383;DHT22;685;47.196;11.880;2023-02-13T11:39:57;4.60;99.90
1383;DHT22;685;47.196;11.880;2023-02-13T11:42:27;4.50;99.90
1383;DHT22;685;47.196;11.880;2023-02-13T11:44:58;4.30;99.90
1383;DHT22;685;47.196;11.880;2023-02-13T11:47:31;4.30;99.90
1383;DHT22;685;47.196;11.880;2023-02-13T11:50:01;4.30;99.90
1383;DHT22;685;47.196;11.880;2023-02-13T11:52:30;4.30;99.90
1383;DHT22;685;47.196;11.880;2023-02-13T11:54:59;4.50;99.90
1383;DHT22;685;47.196;11.880;2023-02-13T11:57:29;4.50;99.90
1383;DHT22;685;47.196;11.880;2023-02-13T11:59:57;4.50;99.90
1383;DHT22;685;47.196;11.880;2023-02-13T12:02:25;4.60;99.90
1383;DHT22;685;47.196;11.880;2023-02-13T12:04:54;4.70;99.90
1383;DHT22;685;47.196;11.880;2023-02-13T12:07:25;4.80;99.90
1383;DHT22;685;47.196;11.880;2023-02-13T12:09:58;4.80;99.90
1383;DHT22;685;47.196;11.880;2023-02-13T12:12:31;4.90;99.90
1383;DHT22;685;47.196;11.880;2023-02-13T12:15:01;4.90;99.90
1383;DHT22;685;47.196;11.880;2023-02-13T12:17:29;5.00;99.90
1383;DHT22;685;47.196;11.880;2023-02-13T12:19:58;5.10;99.90
1383;DHT22;685;47.196;11.880;2023-02-13T12:22:46;5.10;99.90
1383;DHT22;685;47.196;11.880;2023-02-13T12:25:27;5.00;99.90
1383;DHT22;685;47.196;11.880;2023-02-13T12:28:08;5.00;99.90
1383;DHT22;685;47.196;11.880;2023-02-13T12:30:59;5.30;99.90
1383;DHT22;685;47.196;11.880;2023-02-13T12:33:45;5.50;99.90
1383;DHT22;685;47.196;11.880;2023-02-13T12:36:19;5.50;99.90
1383;DHT22;685;47.196;11.880;2023-02-13T12:39:03;5.50;99.90
1383;DHT22;685;47.196;11.880;2023-02-13T12:41:37;5.60;99.90
1383;DHT22;685;47.196;11.880;2023-02-13T12:44:32;5.50;99.90
1383;DHT22;685;47.196;11.880;2023-02-13T12:47:10;5.50;99.90
1383;DHT22;685;47.196;11.880;2023-02-13T12:50:05;5.50;99.90
1383;DHT22;685;47.196;11.880;2023-02-13T12:52:42;5.40;99.90
1383;DHT22;685;47.196;11.880;2023-02-13T12:55:37;5.50;99.90
1383;DHT22;685;47.196;11.880;2023-02-13T13:01:19;5.60;99.90
1383;DHT22;685;47.196;11.880;2023-02-13T13:03:58;5.70;99.90
1383;DHT22;685;47.196;11.880;2023-02-13T13:09:39;5.70;99.90
1383;DHT22;685;47.196;11.880;2023-02-13T13:12:33;5.80;99.90
1383;DHT22;685;47.196;11.880;2023-02-13T13:15:10;5.80;99.90
1383;DHT22;685;47.196;11.880;2023-02-13T13:17:49;5.80;99.90
1383;DHT22;685;47.196;11.880;2023-02-13T13:20:36;5.80;99.90
1383;DHT22;685;47.196;11.880;2023-02-13T13:23:11;6.10;99.90
1383;DHT22;685;47.196;11.880;2023-02-13T13:25:45;6.20;99.90
1383;DHT22;685;47.196;11.880;2023-02-13T13:28:17;6.10;99.90
1383;DHT22;685;47.196;11.880;2023-02-13T13:30:46;6.00;99.90
1383;DHT22;685;47.196;11.880;2023-02-13T13:33:15;6.00;99.90
1383;DHT22;685;47.196;11.880;2023-02-13T13:35:48;6.00;99.90
1383;DHT22;685;47.196;11.880;2023-02-13T13:38:27;6.10;99.90
1383;DHT22;685;47.196;11.880;2023-02-13T13:40:58;6.10;99.90
1383;DHT22;685;47.196;11.880;2023-02-13T13:43:34;6.20;99.90
1383;DHT22;685;47.196;11.880;2023-02-13T13:46:09;6.10;99.90
1383;DHT22;685;47.196;11.880;2023-02-13T13:48:58;6.10;99.90
1383;DHT22;685;47.196;11.880;2023-02-13T13:51:26;6.10;99.90
1383;DHT22;685;47.196;11.880;2023-02-13T13:54:19;6.00;99.90
1383;DHT22;685;47.196;11.880;2023-02-13T13:57:08;6.00;99.90
1383;DHT22;685;47.196;11.880;2023-02-13T13:59:58;6.00;99.90
1383;DHT22;685;47.196;11.880;2023-02-13T14:02:37;6.10;99.90
1383;DHT22;685;47.196;11.880;2023-02-13T14:05:21;6.10;99.90
1383;DHT22;685;47.196;11.880;2023-02-13T14:07:50;6.30;99.90
1383;DHT22;685;47.196;11.880;2023-02-13T14:13:32;6.20;99.90
1383;DHT22;685;47.196;11.880;2023-02-13T14:16:02;6.20;99.90
1383;DHT22;685;47.196;11.880;2023-02-13T14:18:29;6.20;99.90
1383;DHT22;685;47.196;11.880;2023-02-13T14:20:59;6.30;99.90
1383;DHT22;685;47.196;11.880;2023-02-13T14:23:31;6.20;99.90
1383;DHT22;685;47.196;11.880;2023-02-13T14:26:20;6.30;99.90
1383;DHT22;685;47.196;11.880;2023-02-13T14:29:01;6.30;99.90
1383;DHT22;685;47.196;11.880;2023-02-13T14:31:32;6.20;99.90
1383;DHT22;685;47.196;11.880;2023-02-13T14:34:03;6.30;99.90
1383;DHT22;685;47.196;11.880;2023-02-13T14:36:32;6.30;99.90
1383;DHT22;685;47.196;11.880;2023-02-13T14:39:03;6.30;99.90
1383;DHT22;685;47.196;11.880;2023-02-13T14:41:43;6.30;99.90
1383;DHT22;685;47.196;11.880;2023-02-13T14:44:17;6.20;99.90
1383;DHT22;685;47.196;11.880;2023-02-13T14:46:47;6.20;99.90
1383;DHT22;685;47.196;11.880;2023-02-13T14:49:18;6.20;99.90
1383;DHT22;685;47.196;11.880;2023-02-13T14:51:48;6.30;99.90
1383;DHT22;685;47.196;11.880;2023-02-13T14:54:23;6.40;99.90
1383;DHT22;685;47.196;11.880;2023-02-13T14:56:54;6.40;99.90
1383;DHT22;685;47.196;11.880;2023-02-13T14:59:28;6.20;99.90
1383;DHT22;685;47.196;11.880;2023-02-13T15:02:00;6.10;99.90
1383;DHT22;685;47.196;11.880;2023-02-13T15:04:37;6.10;99.90
1383;DHT22;685;47.196;11.880;2023-02-13T15:07:05;6.10;99.90
1383;DHT22;685;47.196;11.880;2023-02-13T15:09:40;6.00;99.90
1383;DHT22;685;47.196;11.880;2023-02-13T15:12:23;5.90;99.90
1383;DHT22;685;47.196;11.880;2023-02-13T15:14:50;5.80;99.90
1383;DHT22;685;47.196;11.880;2023-02-13T15:17:21;5.70;99.90
1383;DHT22;685;47.196;11.880;2023-02-13T15:19:51;5.70;99.90
1383;DHT22;685;47.196;11.880;2023-02-13T15:22:20;5.70;99.90
1383;DHT22;685;47.196;11.880;2023-02-13T15:24:51;5.70;99.90
1383;DHT22;685;47.196;11.880;2023-02-13T15:27:20;5.60;99.90
1383;DHT22;685;47.196;11.880;2023-02-13T15:29:56;5.40;99.90
1383;DHT22;685;47.196;11.880;2023-02-13T15:32:29;5.50;99.90
1383;DHT22;685;47.196;11.880;2023-02-13T15:34:56;5.50;99.90
1383;DHT22;685;47.196;11.880;2023-02-13T15:37:24;5.40;99.90
1383;DHT22;685;47.196;11.880;2023-02-13T15:39:53;5.40;99.90
1383;DHT22;685;47.196;11.880;2023-02-13T15:42:20;5.30;99.90
1383;DHT22;685;47.196;11.880;2023-02-13T15:44:49;5.30;99.90
1383;DHT22;685;47.196;11.880;2023-02-13T15:47:22;5.30;99.90
1383;DHT22;685;47.196;11.880;2023-02-13T15:49:53;5.20;99.90
1383;DHT22;685;47.196;11.880;2023-02-13T15:52:24;5.20;99.90
1383;DHT22;685;47.196;11.880;2023-02-13T15:54:54;5.10;99.90
1383;DHT22;685;47.196;11.880;2023-02-13T15:57:21;5.00;99.90
1383;DHT22;685;47.196;11.880;2023-02-13T15:59:49;4.70;99.90
1383;DHT22;685;47.196;11.880;2023-02-13T16:02:19;4.60;99.90
1383;DHT22;685;47.196;11.880;2023-02-13T16:04:49;4.60;99.90
1383;DHT22;685;47.196;11.880;2023-02-13T16:07:18;4.70;99.90
1383;DHT22;685;47.196;11.880;2023-02-13T16:09:45;4.70;99.90
1383;DHT22;685;47.196;11.880;2023-02-13T16:12:18;4.80;99.90
1383;DHT22;685;47.196;11.880;2023-02-13T16:14:50;4.80;99.90
1383;DHT22;685;47.196;11.880;2023-02-13T16:17:25;4.70;99.90
1383;DHT22;685;47.196;11.880;2023-02-13T16:19:58;4.60;99.90
1383;DHT22;685;47.196;11.880;2023-02-13T16:22:31;4.40;99.90
1383;DHT22;685;47.196;11.880;2023-02-13T16:25:16;4.40;99.90
1383;DHT22;685;47.196;11.880;2023-02-13T16:27:45;4.30;99.90
1383;DHT22;685;47.196;11.880;2023-02-13T16:30:23;4.30;99.90
1383;DHT22;685;47.196;11.880;2023-02-13T16:32:51;4.30;99.90
1383;DHT22;685;47.196;11.880;2023-02-13T16:35:27;4.20;99.90
1383;DHT22;685;47.196;11.880;2023-02-13T16:37:56;4.10;99.90
1383;DHT22;685;47.196;11.880;2023-02-13T16:40:36;4.20;99.90
1383;DHT22;685;47.196;11.880;2023-02-13T16:43:39;4.30;99.90
1383;DHT22;685;47.196;11.880;2023-02-13T16:46:16;4.30;99.90
1383;DHT22;685;47.196;11.880;2023-02-13T16:48:46;4.40;99.90
1383;DHT22;685;47.196;11.880;2023-02-13T16:51:15;4.40;99.90
1383;DHT22;685;47.196;11.880;2023-02-13T16:53:44;4.30;99.90